createdAt,value
2022-12-23T00:00:00.325Z,1.3
2022-12-23T00:05:00.473Z,1.2
2022-12-23T00:10:00.471Z,0.9
2022-12-23T00:15:00.597Z,0.5
2022-12-23T00:20:00.385Z,1.0
2022-12-23T00:25:00.471Z,1.1
2022-12-23T00:30:00.337Z,0.7
2022-12-23T00:35:00.487Z,0.9
2022-12-23T00:40:07.029Z,0.3
2022-12-23T00:45:00.534Z,0.5
2022-12-23T00:50:00.333Z,0.1
2022-12-23T00:55:00.470Z,0.3
2022-12-23T01:00:00.328Z,0.1
2022-12-23T01:05:01.629Z,0.0
2022-12-23T01:10:00.364Z,0.5
2022-12-23T01:15:00.688Z,0.5
2022-12-23T01:20:00.370Z,0.3
2022-12-23T01:25:00.551Z,0.0
2022-12-23T01:30:00.486Z,1.6
2022-12-23T01:35:00.493Z,0.5
2022-12-23T01:40:00.387Z,1.5
2022-12-23T01:45:00.499Z,0.8
2022-12-23T01:50:00.342Z,0.3
2022-12-23T01:55:00.503Z,1.2
2022-12-23T02:00:00.348Z,1.0
2022-12-23T02:05:00.484Z,1.4
2022-12-23T02:10:00.345Z,1.2
2022-12-23T02:15:00.476Z,2.1
2022-12-23T02:20:00.323Z,1.2
2022-12-23T02:25:00.463Z,0.6
2022-12-23T02:30:00.352Z,0.1
2022-12-23T02:35:00.505Z,0.9
2022-12-23T02:40:00.343Z,1.7
2022-12-23T02:45:00.488Z,0.3
2022-12-23T02:50:00.341Z,0.0
2022-12-23T02:55:00.468Z,1.0
2022-12-23T03:00:00.336Z,0.4
2022-12-23T03:05:01.459Z,0.0
2022-12-23T03:10:00.438Z,0.4
2022-12-23T03:15:00.460Z,0.3
2022-12-23T03:20:00.341Z,1.0
2022-12-23T03:25:00.529Z,0.6
2022-12-23T03:30:00.347Z,0.0
2022-12-23T03:35:00.482Z,0.1
2022-12-23T03:40:00.410Z,0.2
2022-12-23T03:45:37.348Z,0.0
2022-12-23T03:50:00.332Z,0.0
2022-12-23T03:55:00.504Z,0.0
2022-12-23T04:00:00.340Z,0.0
2022-12-23T04:05:00.547Z,0.0
2022-12-23T04:10:00.593Z,0.0
2022-12-23T04:15:00.532Z,0.0
2022-12-23T04:20:00.376Z,0.0
2022-12-23T04:25:00.528Z,0.0
2022-12-23T04:30:00.341Z,0.0
2022-12-23T04:35:00.511Z,0.0
2022-12-23T04:40:00.467Z,0.0
2022-12-23T04:45:00.510Z,0.0
2022-12-23T04:50:00.344Z,0.0
2022-12-23T04:55:00.589Z,0.0
2022-12-23T05:00:00.325Z,0.0
2022-12-23T05:05:00.490Z,0.0
2022-12-23T05:10:00.343Z,0.0
2022-12-23T05:15:00.531Z,0.0
2022-12-23T05:20:00.334Z,0.0
2022-12-23T05:25:00.504Z,0.0
2022-12-23T05:30:00.357Z,0.0
2022-12-23T05:35:00.531Z,0.0
2022-12-23T05:40:00.558Z,0.0
2022-12-23T05:45:00.492Z,0.0
2022-12-23T05:50:00.364Z,0.5
2022-12-23T05:55:00.509Z,0.0
2022-12-23T06:00:00.331Z,0.0
2022-12-23T06:05:00.480Z,0.0
2022-12-23T06:10:00.371Z,0.0
2022-12-23T06:15:00.679Z,0.0
2022-12-23T06:20:00.332Z,0.0
2022-12-23T06:25:00.489Z,0.3
2022-12-23T06:30:00.353Z,0.0
2022-12-23T06:35:00.466Z,0.2
2022-12-23T06:40:00.336Z,0.0
2022-12-23T06:45:00.487Z,0.0
2022-12-23T06:50:00.447Z,0.0
2022-12-23T06:55:00.496Z,0.0
2022-12-23T07:00:00.357Z,0.0
2022-12-23T07:05:00.487Z,0.0
2022-12-23T07:10:00.422Z,0.0
2022-12-23T07:15:00.504Z,0.0
2022-12-23T07:20:00.361Z,0.0
2022-12-23T07:25:00.542Z,0.0
2022-12-23T07:30:00.388Z,0.0
2022-12-23T07:35:00.487Z,0.0
2022-12-23T07:40:08.717Z,0.0
2022-12-23T07:45:00.476Z,0.0
2022-12-23T07:50:00.322Z,0.0
2022-12-23T07:55:00.555Z,0.0
2022-12-23T08:00:00.413Z,0.3
2022-12-23T08:05:00.839Z,1.3
2022-12-23T08:10:00.355Z,0.8
2022-12-23T08:15:00.538Z,0.1
2022-12-23T08:20:00.336Z,1.2
2022-12-23T08:25:00.492Z,0.3
2022-12-23T08:30:00.362Z,0.8
2022-12-23T08:35:00.468Z,0.2
2022-12-23T08:40:00.345Z,0.9
2022-12-23T08:45:00.487Z,0.1
2022-12-23T08:50:00.351Z,0.0
2022-12-23T08:55:00.521Z,0.2
2022-12-23T09:00:00.352Z,0.0
2022-12-23T09:05:00.493Z,0.1
2022-12-23T09:10:00.343Z,0.1
2022-12-23T09:15:00.559Z,1.1
2022-12-23T09:20:00.348Z,0.3
2022-12-23T09:25:05.607Z,0.8
2022-12-23T09:30:00.327Z,2.1
2022-12-23T09:35:00.515Z,1.3
2022-12-23T09:40:00.587Z,1.7
2022-12-23T09:45:00.492Z,1.6
2022-12-23T09:50:00.341Z,1.7
2022-12-23T09:55:00.481Z,0.4
2022-12-23T10:00:00.378Z,3.2
2022-12-23T10:05:00.516Z,1.5
2022-12-23T10:10:00.543Z,1.3
2022-12-23T10:15:00.555Z,0.8
2022-12-23T10:20:00.348Z,1.3
2022-12-23T10:25:00.516Z,0.9
2022-12-23T10:30:34.083Z,0.1
2022-12-23T10:35:00.537Z,1.0
2022-12-23T10:40:00.516Z,1.5
2022-12-23T10:45:00.499Z,2.0
2022-12-23T10:50:00.327Z,0.1
2022-12-23T10:55:00.490Z,1.6
2022-12-23T11:00:00.544Z,0.4
2022-12-23T11:05:00.482Z,2.1
2022-12-23T11:10:00.335Z,0.8
2022-12-23T11:15:00.547Z,1.8
2022-12-23T11:20:00.361Z,0.8
2022-12-23T11:25:00.661Z,0.9
2022-12-23T11:30:00.327Z,2.5
2022-12-23T11:35:00.621Z,3.5
2022-12-23T11:40:00.377Z,4.3
2022-12-23T11:45:00.531Z,1.1
2022-12-23T11:50:00.354Z,3.2
2022-12-23T11:55:00.581Z,5.0
2022-12-23T12:00:00.349Z,3.9
2022-12-23T12:05:00.567Z,3.7
2022-12-23T12:10:00.337Z,3.4
2022-12-23T12:15:00.548Z,6.7
2022-12-23T12:20:00.349Z,6.7
2022-12-23T12:25:00.479Z,2.6
2022-12-23T12:30:08.335Z,5.0
2022-12-23T12:35:00.470Z,3.7
2022-12-23T12:40:00.360Z,4.5
2022-12-23T12:45:00.701Z,3.4
2022-12-23T12:50:00.377Z,4.5
2022-12-23T12:55:00.516Z,3.1
2022-12-23T13:00:07.020Z,2.6
2022-12-23T13:05:00.509Z,0.6
2022-12-23T13:10:00.363Z,2.3
2022-12-23T13:15:00.523Z,2.8
2022-12-23T13:20:00.334Z,2.6
2022-12-23T13:25:00.531Z,0.3
2022-12-23T13:30:00.506Z,0.1
2022-12-23T13:35:00.498Z,0.1
2022-12-23T13:40:00.360Z,0.6
2022-12-23T13:45:00.521Z,0.6
2022-12-23T13:50:00.342Z,1.8
2022-12-23T13:55:00.511Z,0.6
2022-12-23T14:00:06.400Z,2.7
2022-12-23T14:05:00.517Z,1.0
2022-12-23T14:10:00.383Z,0.1
2022-12-23T14:15:00.500Z,1.0
2022-12-23T14:20:00.369Z,0.0
2022-12-23T14:25:00.524Z,0.0
2022-12-23T14:30:06.401Z,0.0
2022-12-23T14:35:00.485Z,0.5
2022-12-23T14:40:00.356Z,0.2
2022-12-23T14:45:00.506Z,1.9
2022-12-23T14:50:00.334Z,0.4
2022-12-23T14:55:29.462Z,0.6
2022-12-23T15:00:00.353Z,0.1
2022-12-23T15:05:00.545Z,0.4
2022-12-23T15:10:01.649Z,0.0
2022-12-23T15:15:00.502Z,0.7
2022-12-23T15:20:00.323Z,1.8
2022-12-23T15:25:00.466Z,0.4
2022-12-23T15:30:00.394Z,0.7
2022-12-23T15:35:00.532Z,0.0
2022-12-23T15:40:13.516Z,0.0
2022-12-23T15:45:00.512Z,0.0
2022-12-23T15:50:00.724Z,0.0
2022-12-23T15:55:00.463Z,0.0
2022-12-23T16:00:00.670Z,0.0
2022-12-23T16:05:00.612Z,0.3
2022-12-23T16:10:00.326Z,0.0
2022-12-23T16:15:00.515Z,0.7
2022-12-23T16:20:00.479Z,0.5
2022-12-23T16:25:00.548Z,0.2
2022-12-23T16:30:00.337Z,0.3
2022-12-23T16:35:02.079Z,0.9
2022-12-23T16:40:00.331Z,0.2
2022-12-23T16:45:00.492Z,1.3
2022-12-23T16:50:00.343Z,0.6
2022-12-23T16:55:00.469Z,0.5
2022-12-23T17:00:00.556Z,0.0
2022-12-23T17:05:00.601Z,0.0
2022-12-23T17:10:00.379Z,0.0
2022-12-23T17:15:00.491Z,0.0
2022-12-23T17:20:00.374Z,0.0
2022-12-23T17:25:00.511Z,0.0
2022-12-23T17:30:00.345Z,0.0
2022-12-23T17:35:00.483Z,0.6
2022-12-23T17:40:00.572Z,0.2
2022-12-23T17:45:00.522Z,1.0
2022-12-23T17:50:00.349Z,0.9
2022-12-23T17:55:00.528Z,0.0
2022-12-23T18:00:00.353Z,0.0
2022-12-23T18:05:00.487Z,0.0
2022-12-23T18:10:00.859Z,0.0
2022-12-23T18:15:00.534Z,0.0
2022-12-23T18:20:00.376Z,0.0
2022-12-23T18:25:00.579Z,0.3
2022-12-23T18:30:00.354Z,0.0
2022-12-23T18:35:00.514Z,0.0
2022-12-23T18:40:00.429Z,0.0
2022-12-23T18:45:00.512Z,0.0
2022-12-23T18:50:00.353Z,0.0
2022-12-23T18:55:00.466Z,0.0
2022-12-23T19:00:00.393Z,0.0
2022-12-23T19:05:00.500Z,0.0
2022-12-23T19:10:00.352Z,0.0
2022-12-23T19:15:00.468Z,0.0
2022-12-23T19:20:00.355Z,0.0
2022-12-23T19:25:06.835Z,0.0
2022-12-23T19:30:00.378Z,0.0
2022-12-23T19:35:00.470Z,0.0
2022-12-23T19:40:00.338Z,0.0
2022-12-23T19:45:01.374Z,0.1
2022-12-23T19:50:00.355Z,0.3
2022-12-23T19:55:00.502Z,0.7
2022-12-23T20:00:00.342Z,2.8
2022-12-23T20:05:00.576Z,1.6
2022-12-23T20:10:00.544Z,2.3
2022-12-23T20:15:00.553Z,1.9
2022-12-23T20:20:00.351Z,2.0
2022-12-23T20:25:00.464Z,2.5
2022-12-23T20:30:00.340Z,2.7
2022-12-23T20:35:00.468Z,2.5
2022-12-23T20:40:00.389Z,2.4
2022-12-23T20:45:00.904Z,2.8
2022-12-23T20:55:00.634Z,2.3
2022-12-23T21:00:00.661Z,2.6
2022-12-23T21:05:00.795Z,2.4
2022-12-23T21:10:00.651Z,2.8
2022-12-23T21:15:00.606Z,3.5
2022-12-23T21:20:07.412Z,2.5
2022-12-23T21:25:00.631Z,1.3
2022-12-23T21:30:00.614Z,2.0
2022-12-23T21:35:00.637Z,3.8
2022-12-23T21:40:00.619Z,2.9
2022-12-23T21:45:00.598Z,2.7
2022-12-23T21:50:00.683Z,1.0
2022-12-23T21:55:00.658Z,2.7
2022-12-23T22:00:00.670Z,3.5
2022-12-23T22:05:00.663Z,4.7
2022-12-23T22:10:00.607Z,3.7
2022-12-23T22:15:06.309Z,3.7
2022-12-23T22:20:00.644Z,4.0
2022-12-23T22:25:00.601Z,4.1
2022-12-23T22:30:00.793Z,5.1
2022-12-23T22:35:00.611Z,3.6
2022-12-23T22:40:00.639Z,4.1
2022-12-23T22:45:00.887Z,4.6
2022-12-23T22:50:00.635Z,2.9
2022-12-23T22:55:00.582Z,2.5
2022-12-23T23:00:11.491Z,3.7
2022-12-23T23:05:00.737Z,4.1
2022-12-23T23:10:00.645Z,5.5
2022-12-23T23:15:00.647Z,6.3
2022-12-23T23:20:00.670Z,3.2
2022-12-23T23:25:00.598Z,3.9
2022-12-23T23:30:00.626Z,4.2
2022-12-23T23:35:10.461Z,3.3
2022-12-23T23:40:00.639Z,4.8
2022-12-23T23:45:00.682Z,5.6
2022-12-23T23:50:00.786Z,4.9
2022-12-23T23:55:00.593Z,4.7
